Terminal Aerodrome Forecast
Issued by NWS

Home | Current Version | Previous Version | Text Only | Print | Product List | Glossary On
Versions: 1 2 3 4 5 6 7 8 9 10 11 12 13 14
000
FTUS43 KICT 191120
TAFHUT
TAF
KHUT 191120Z 1912/2012 VRB04KT P6SM SKC
     FM191800 16008KT P6SM SKC
     FM200800 17007KT P6SM BKN200=

USA.gov is the U.S. government's official web portal to all federal, state and local government web resources and services.